Řízení letového provozu České republiky
OPMET data - Ceska Republika Aktualizace: 20.06.2018 07:01:07  UTC
SIGMET / AIRMET - NIL
Warning / Vystraha - NIL
 
METAR / SPECI
METAR LKCV 200700Z VRB01KT CAVOK 21/15 Q1024 NOSIG RMK BLU BLU=
METAR LKKB 200700Z VRB02KT CAVOK 21/15 Q1024 NOSIG RMK BLU BLU=
METAR LKKU 200700Z 03006KT CAVOK 23/14 Q1023 RMK REG QNH 1020=
METAR LKKV 200700Z 10007KT 070V130 9999 FEW033 20/14 Q1024 RMK REG QNH 1020=
METAR LKLN 200700Z AUTO 07003KT 010V110 9999 OVC069 21/16 Q1024=
METAR LKMT 200700Z 04004KT 360V100 CAVOK 23/15 Q1024 NOSIG RMK REG QNH 1020=
METAR LKNA 200700Z VRB02KT CAVOK 20/14 Q1024 NOSIG RMK BLU BLU=
METAR LKPD 200700Z VRB02KT CAVOK 22/14 Q1024 NOSIG RMK BLU BLU=
METAR LKPR 200700Z 04005KT 9999 FEW025 21/15 Q1024 NOSIG RMK REG QNH 1020=
METAR LKTB 200700Z 32004KT 250V010 CAVOK 23/14 Q1024 NOSIG RMK REG QNH 1020=
METAR LKVO 200700Z 12004KT 050V170 9999 FEW030 SCT049 22/14 Q1024=
TAF
TAF LKCV 200500Z 2006/2106 VRB02KT CAVOK      TEMPO 2007/2011 SCT040      BECMG 2007/2009 11005KT=
TAF LKKB 200500Z 2006/2106 34005KT CAVOK      BECMG 2008/2010 06006KT      TEMPO 2008/2015 14006KT 9999 SCT040=
TAF LKKU NIL
TAF LKKV 200500Z 2006/2112 VRB02KT CAVOK      TEMPO 2007/2012 9999 SCT035      BECMG 2108/2110 26008KT      TEMPO 2110/2112 26008G25KT 9999 BKN050CB=
TAF LKLN NIL
TAF LKMT 200500Z 2006/2112 06005KT CAVOK      BECMG 2020/2022 VRB02KT      BECMG 2106/2108 21012KT 9999 BKN045      TEMPO 2108/2112 21015G25KT 9999 BKN045CB=
TAF LKNA 200500Z 2006/2106 VRB02KT CAVOK=
TAF LKPD 200500Z 2006/2106 27004KT CAVOK=
TAF LKPR 200500Z 2006/2112 06004KT CAVOK      TEMPO 2008/2011 9999 SCT045      BECMG 2011/2013 12005KT      BECMG 2019/2021 16005KT      BECMG 2106/2108 21008KT      BECMG 2109/2111 25012KT 9999 BKN040      TEMPO 2111/2112 25010G30KT BKN030CB=
TAF LKTB 200500Z 2006/2112 14002KT CAVOK      TEMPO 2008/2013 12007KT      BECMG 2020/2022 04003KT      BECMG 2106/2109 17006KT      TEMPO 2109/2112 9999 BKN055CB=
TAF LKVO NIL